createdAt,value
2023-09-20T00:00:26.029Z,1.30
2023-09-20T00:03:14.379Z,1.67
2023-09-20T00:06:02.061Z,1.20
2023-09-20T00:08:49.704Z,1.10
2023-09-20T00:11:37.289Z,1.30
2023-09-20T00:14:24.889Z,1.20
2023-09-20T00:17:12.929Z,1.52
2023-09-20T00:20:00.632Z,1.15
2023-09-20T00:22:48.850Z,1.10
2023-09-20T00:25:36.480Z,1.10
2023-09-20T00:28:24.067Z,1.20
2023-09-20T00:31:11.824Z,1.20
2023-09-20T00:34:00.426Z,1.38
2023-09-20T00:36:48.213Z,1.30
2023-09-20T00:39:35.801Z,1.40
2023-09-20T00:42:23.362Z,1.08
2023-09-20T00:45:11.108Z,1.23
2023-09-20T00:48:00.225Z,1.02
2023-09-20T00:50:49.648Z,1.30
2023-09-20T00:53:39.088Z,1.00
2023-09-20T00:56:27.055Z,1.40
2023-09-20T00:59:15.440Z,1.13
2023-09-20T01:02:04.214Z,1.25
2023-09-20T01:04:52.913Z,1.40
2023-09-20T01:07:43.188Z,0.90
2023-09-20T01:10:33.209Z,1.45
2023-09-20T01:13:20.984Z,1.17
2023-09-20T01:16:10.752Z,1.10
2023-09-20T01:18:58.328Z,1.23
2023-09-20T01:21:45.890Z,1.20
2023-09-20T01:24:36.230Z,1.00
2023-09-20T01:27:23.977Z,1.33
2023-09-20T01:30:13.268Z,1.20
2023-09-20T01:33:02.444Z,1.10
2023-09-20T01:35:50.019Z,1.40
2023-09-20T01:38:39.523Z,1.20
2023-09-20T01:41:27.323Z,0.95
2023-09-20T01:44:17.964Z,1.20
2023-09-20T01:47:06.011Z,1.38
2023-09-20T01:49:55.028Z,1.33
2023-09-20T01:52:43.423Z,1.02
2023-09-20T01:55:33.056Z,1.10
2023-09-20T01:58:21.162Z,1.00
2023-09-20T02:01:08.703Z,0.90
2023-09-20T02:03:57.537Z,1.08
2023-09-20T02:06:45.296Z,1.30
2023-09-20T02:09:32.873Z,1.20
2023-09-20T02:12:20.374Z,1.25
2023-09-20T02:15:08.941Z,1.20
2023-09-20T02:17:56.612Z,1.10
2023-09-20T02:20:45.456Z,1.00
2023-09-20T02:23:33.155Z,1.23
2023-09-20T02:26:21.185Z,1.05
2023-09-20T02:29:09.141Z,1.10
2023-09-20T02:31:56.670Z,1.33
2023-09-20T02:34:44.816Z,1.50
2023-09-20T02:37:32.584Z,0.90
2023-09-20T02:40:20.306Z,1.10
2023-09-20T02:43:10.894Z,1.27
2023-09-20T02:46:04.016Z,1.10
2023-09-20T02:48:52.466Z,1.17
2023-09-20T02:51:40.132Z,1.40
2023-09-20T02:54:27.857Z,1.35
2023-09-20T02:57:17.007Z,1.10
2023-09-20T03:00:20.176Z,1.10
2023-09-20T03:03:10.109Z,1.08
2023-09-20T03:05:58.199Z,1.15
2023-09-20T03:08:46.571Z,1.27
2023-09-20T03:11:37.408Z,1.00
2023-09-20T03:14:25.275Z,1.15
2023-09-20T03:17:13.867Z,1.23
2023-09-20T03:20:02.273Z,1.15
2023-09-20T03:22:51.550Z,1.20
2023-09-20T03:25:39.130Z,1.02
2023-09-20T03:28:26.943Z,1.17
2023-09-20T03:31:19.302Z,1.20
2023-09-20T03:34:08.502Z,1.10
2023-09-20T03:36:58.725Z,1.52
2023-09-20T03:39:47.780Z,1.00
2023-09-20T03:42:35.430Z,1.00
2023-09-20T03:45:24.975Z,1.30
2023-09-20T03:48:12.921Z,1.23
2023-09-20T03:51:00.538Z,1.15
2023-09-20T03:53:51.182Z,1.10
2023-09-20T03:56:39.320Z,1.10
2023-09-20T03:59:28.228Z,1.20
2023-09-20T04:02:15.958Z,1.65
2023-09-20T04:05:12.039Z,1.23
2023-09-20T04:08:01.754Z,1.20
2023-09-20T04:10:49.342Z,1.40
2023-09-20T04:13:37.188Z,1.17
2023-09-20T04:16:24.794Z,0.95
2023-09-20T04:19:12.394Z,1.00
2023-09-20T04:21:59.941Z,1.17
2023-09-20T04:24:47.515Z,1.38
2023-09-20T04:27:35.021Z,1.00
2023-09-20T04:30:23.205Z,1.02
2023-09-20T04:33:12.074Z,1.05
2023-09-20T04:36:02.315Z,1.10
2023-09-20T04:38:49.824Z,1.10
2023-09-20T04:41:39.300Z,1.08
2023-09-20T04:44:26.892Z,0.90
2023-09-20T04:47:16.278Z,1.10
2023-09-20T04:50:04.972Z,1.30
2023-09-20T04:52:52.582Z,1.00
2023-09-20T04:55:40.158Z,1.20
2023-09-20T04:58:27.690Z,1.17
2023-09-20T05:01:16.423Z,1.00
2023-09-20T05:04:07.699Z,0.93
2023-09-20T05:06:55.300Z,1.00
2023-09-20T05:09:42.777Z,1.10
2023-09-20T05:12:30.429Z,1.00
2023-09-20T05:15:17.986Z,0.90
2023-09-20T05:18:06.580Z,1.20
2023-09-20T05:20:54.141Z,1.15
2023-09-20T05:23:42.528Z,0.93
2023-09-20T05:26:30.842Z,1.10
2023-09-20T05:29:19.640Z,1.00
2023-09-20T05:32:07.225Z,0.95
2023-09-20T05:34:54.916Z,0.90
2023-09-20T05:37:42.424Z,0.88
2023-09-20T05:40:29.987Z,0.98
2023-09-20T05:43:17.735Z,0.98
2023-09-20T05:46:05.834Z,0.80
2023-09-20T05:48:54.193Z,1.40
2023-09-20T05:51:41.948Z,1.20
2023-09-20T05:54:30.504Z,1.05
2023-09-20T05:57:21.274Z,1.33
2023-09-20T06:00:19.705Z,0.95
2023-09-20T06:03:08.985Z,1.00
2023-09-20T06:05:56.840Z,1.13
2023-09-20T06:08:47.423Z,1.10
2023-09-20T06:11:34.981Z,1.27
2023-09-20T06:14:24.003Z,1.20
2023-09-20T06:17:11.597Z,1.40
2023-09-20T06:20:00.394Z,0.90
2023-09-20T06:22:52.454Z,0.90
2023-09-20T06:25:40.043Z,1.10
2023-09-20T06:28:29.527Z,1.10
2023-09-20T06:31:19.819Z,1.00
2023-09-20T06:34:07.852Z,1.20
2023-09-20T06:36:55.461Z,1.05
2023-09-20T06:39:45.730Z,1.30
2023-09-20T06:42:33.366Z,0.95
2023-09-20T06:45:21.686Z,1.05
2023-09-20T06:48:09.389Z,1.10
2023-09-20T06:50:57.195Z,1.08
2023-09-20T06:53:46.336Z,0.90
2023-09-20T06:56:34.310Z,0.90
2023-09-20T06:59:22.092Z,1.35
2023-09-20T07:02:09.769Z,1.33
2023-09-20T07:04:57.541Z,1.30
2023-09-20T07:07:46.852Z,1.48
2023-09-20T07:10:34.924Z,1.05
2023-09-20T07:13:22.740Z,1.20
2023-09-20T07:16:11.831Z,1.42
2023-09-20T07:19:00.344Z,1.30
2023-09-20T07:21:47.999Z,1.30
2023-09-20T07:24:37.358Z,0.90
2023-09-20T07:27:24.901Z,0.90
2023-09-20T07:30:19.124Z,1.00
2023-09-20T07:36:03.039Z,1.10
2023-09-20T07:38:51.937Z,1.25
2023-09-20T07:41:39.641Z,1.10
2023-09-20T07:44:32.541Z,1.00
2023-09-20T07:47:22.413Z,1.10
2023-09-20T07:50:13.418Z,1.00
2023-09-20T07:53:02.285Z,0.90
2023-09-20T07:56:03.379Z,0.80
2023-09-20T07:58:53.694Z,1.08
2023-09-20T08:01:45.241Z,1.05
2023-09-20T08:04:38.944Z,0.90
2023-09-20T08:07:26.497Z,1.23
2023-09-20T08:10:14.634Z,1.75
2023-09-20T08:13:05.474Z,1.33
2023-09-20T08:15:53.056Z,1.30
2023-09-20T08:19:00.637Z,1.50
2023-09-20T08:21:49.125Z,1.83
2023-09-20T08:24:55.316Z,2.45
2023-09-20T08:28:01.284Z,1.90
2023-09-20T08:31:07.076Z,1.45
2023-09-20T08:34:13.057Z,1.45
2023-09-20T08:37:18.895Z,1.58
2023-09-20T08:40:25.387Z,1.98
2023-09-20T08:43:32.386Z,2.10
2023-09-20T08:46:38.801Z,2.13
2023-09-20T08:49:50.550Z,1.65
2023-09-20T08:52:59.075Z,1.60
2023-09-20T08:56:04.896Z,1.70
2023-09-20T08:59:12.640Z,1.45
2023-09-20T09:02:01.639Z,1.60
2023-09-20T09:04:53.870Z,1.40
2023-09-20T09:07:41.402Z,1.25
2023-09-20T09:10:29.742Z,1.70
2023-09-20T09:13:17.271Z,1.13
2023-09-20T09:16:08.655Z,1.23
2023-09-20T09:18:56.644Z,1.42
2023-09-20T09:21:44.342Z,1.50
2023-09-20T09:24:49.045Z,1.60
2023-09-20T09:27:37.658Z,2.08
2023-09-20T09:30:27.428Z,1.55
2023-09-20T09:33:17.982Z,1.50
2023-09-20T09:36:06.300Z,1.50
2023-09-20T09:39:20.621Z,1.58
2023-09-20T09:42:25.916Z,1.80
2023-09-20T09:45:14.225Z,1.90
2023-09-20T09:48:07.838Z,1.88
2023-09-20T09:50:59.177Z,1.60
2023-09-20T09:53:47.888Z,1.23
2023-09-20T09:56:35.527Z,1.38
2023-09-20T09:59:23.214Z,1.10
2023-09-20T10:02:19.741Z,1.30
2023-09-20T10:05:14.018Z,1.27
2023-09-20T10:10:51.115Z,1.30
2023-09-20T10:13:41.675Z,1.30
2023-09-20T10:16:29.697Z,1.40
2023-09-20T10:19:17.973Z,1.73
2023-09-20T10:22:10.598Z,1.52
2023-09-20T10:25:02.495Z,1.50
2023-09-20T10:27:54.035Z,1.80
2023-09-20T10:31:05.022Z,2.13
2023-09-20T10:33:53.687Z,1.63
2023-09-20T10:36:52.979Z,1.58
2023-09-20T10:39:44.103Z,1.70
2023-09-20T10:42:32.205Z,1.42
2023-09-20T10:45:19.821Z,1.50
2023-09-20T10:48:16.496Z,1.33
2023-09-20T10:51:06.494Z,1.73
2023-09-20T10:53:54.243Z,1.60
2023-09-20T10:56:53.990Z,1.63
2023-09-20T10:59:47.495Z,1.48
2023-09-20T11:02:35.142Z,1.35
2023-09-20T11:05:25.224Z,1.20
2023-09-20T11:08:14.984Z,1.15
2023-09-20T11:11:02.758Z,1.48
2023-09-20T11:13:50.773Z,1.23
2023-09-20T11:16:43.137Z,1.70
2023-09-20T11:19:30.918Z,1.20
2023-09-20T11:22:20.402Z,1.20
2023-09-20T11:25:08.700Z,1.50
2023-09-20T11:27:58.369Z,1.33
2023-09-20T11:30:49.926Z,1.45
2023-09-20T11:33:37.557Z,1.33
2023-09-20T11:36:25.092Z,1.15
2023-09-20T11:39:24.494Z,1.40
2023-09-20T11:42:13.785Z,1.55
2023-09-20T11:45:29.285Z,1.60
2023-09-20T11:48:16.807Z,1.40
2023-09-20T11:51:06.096Z,2.03
2023-09-20T11:53:54.029Z,1.27
2023-09-20T11:56:42.753Z,1.63
2023-09-20T11:59:30.301Z,1.23
2023-09-20T12:02:18.214Z,1.50
2023-09-20T12:05:06.167Z,1.33
2023-09-20T12:07:58.413Z,1.40
2023-09-20T12:10:45.999Z,1.40
2023-09-20T12:13:33.651Z,1.40
2023-09-20T12:16:25.264Z,1.67
2023-09-20T12:19:12.858Z,1.30
2023-09-20T12:22:02.139Z,1.20
2023-09-20T12:24:50.149Z,1.30
2023-09-20T12:27:37.620Z,1.60
2023-09-20T12:30:29.989Z,1.40
2023-09-20T12:33:21.196Z,1.20
2023-09-20T12:36:12.883Z,1.65
2023-09-20T12:39:03.060Z,1.40
2023-09-20T12:41:50.638Z,1.92
2023-09-20T12:44:38.828Z,1.40
2023-09-20T12:47:26.826Z,1.70
2023-09-20T12:50:15.125Z,1.90
2023-09-20T12:53:03.112Z,2.13
2023-09-20T12:55:51.579Z,1.23
2023-09-20T12:58:41.363Z,1.63
2023-09-20T13:01:29.793Z,1.77
2023-09-20T13:04:17.554Z,1.30
2023-09-20T13:07:05.160Z,1.50
2023-09-20T13:09:52.926Z,1.50
2023-09-20T13:12:42.205Z,1.70
2023-09-20T13:15:29.964Z,1.58
2023-09-20T13:18:18.143Z,1.60
2023-09-20T13:21:06.479Z,1.45
2023-09-20T13:23:54.185Z,1.48
2023-09-20T13:26:42.509Z,1.98
2023-09-20T13:29:30.191Z,1.38
2023-09-20T13:32:17.917Z,1.40
2023-09-20T13:35:08.039Z,1.52
2023-09-20T13:37:55.768Z,1.38
2023-09-20T13:40:48.529Z,1.58
2023-09-20T13:43:36.339Z,1.52
2023-09-20T13:46:25.998Z,1.80
2023-09-20T13:49:14.549Z,1.40
2023-09-20T13:52:02.274Z,1.45
2023-09-20T13:54:52.178Z,1.85
2023-09-20T13:57:39.914Z,1.35
2023-09-20T14:00:30.765Z,1.42
2023-09-20T14:03:18.649Z,1.50
2023-09-20T14:06:08.997Z,1.45
2023-09-20T14:08:56.671Z,1.52
2023-09-20T14:11:46.077Z,1.58
2023-09-20T14:14:35.102Z,1.67
2023-09-20T14:17:23.017Z,1.40
2023-09-20T14:20:12.013Z,1.35
2023-09-20T14:22:59.742Z,1.40
2023-09-20T14:25:51.009Z,1.42
2023-09-20T14:28:39.126Z,1.70
2023-09-20T14:31:28.427Z,1.63
2023-09-20T14:34:16.564Z,1.38
2023-09-20T14:37:05.806Z,1.40
2023-09-20T14:39:54.133Z,1.30
2023-09-20T14:42:45.872Z,1.30
2023-09-20T14:45:33.609Z,1.20
2023-09-20T14:48:21.433Z,1.38
2023-09-20T14:51:16.582Z,1.50
2023-09-20T14:54:05.336Z,1.27
2023-09-20T14:56:54.054Z,1.17
2023-09-20T14:59:42.365Z,1.27
2023-09-20T15:02:30.604Z,1.38
2023-09-20T15:05:21.508Z,1.40
2023-09-20T15:08:10.158Z,1.20
2023-09-20T15:10:59.922Z,1.25
2023-09-20T15:13:48.891Z,1.52
2023-09-20T15:16:37.706Z,1.77
2023-09-20T15:19:25.521Z,1.17
2023-09-20T15:22:14.029Z,1.38
2023-09-20T15:25:02.345Z,1.40
2023-09-20T15:27:56.365Z,1.45
2023-09-20T15:30:44.541Z,1.13
2023-09-20T15:33:32.817Z,1.58
2023-09-20T15:36:22.442Z,1.40
2023-09-20T15:39:10.237Z,1.50
2023-09-20T15:42:01.146Z,1.45
2023-09-20T15:44:52.855Z,1.50
2023-09-20T15:47:41.268Z,1.30
2023-09-20T15:50:31.618Z,1.45
2023-09-20T15:53:19.588Z,1.30
2023-09-20T15:56:09.389Z,1.77
2023-09-20T15:58:58.947Z,1.63
2023-09-20T16:01:46.606Z,1.60
2023-09-20T16:04:35.192Z,1.35
2023-09-20T16:07:22.924Z,1.70
2023-09-20T16:10:15.533Z,1.20
2023-09-20T16:13:03.672Z,1.57
2023-09-20T16:15:54.714Z,1.35
2023-09-20T16:18:42.737Z,1.50
2023-09-20T16:21:30.441Z,1.58
2023-09-20T16:24:19.853Z,1.30
2023-09-20T16:27:08.262Z,1.40
2023-09-20T16:29:56.489Z,1.40
2023-09-20T16:32:47.808Z,1.60
2023-09-20T16:35:35.853Z,1.35
2023-09-20T16:38:23.524Z,1.20
2023-09-20T16:41:16.068Z,1.33
2023-09-20T16:44:03.937Z,1.30
2023-09-20T16:46:51.968Z,1.40
2023-09-20T16:49:40.093Z,1.35
2023-09-20T16:52:27.858Z,1.10
2023-09-20T16:55:15.607Z,1.30
2023-09-20T16:58:04.404Z,1.30
2023-09-20T17:00:52.249Z,1.52
2023-09-20T17:03:40.265Z,1.20
2023-09-20T17:06:28.115Z,1.20
2023-09-20T17:09:23.176Z,1.20
2023-09-20T17:12:11.128Z,1.20
2023-09-20T17:14:59.007Z,1.17
2023-09-20T17:17:47.624Z,1.10
2023-09-20T17:20:35.976Z,1.40
2023-09-20T17:23:24.159Z,1.20
2023-09-20T17:26:12.542Z,1.27
2023-09-20T17:29:00.542Z,1.40
2023-09-20T17:31:51.269Z,1.30
2023-09-20T17:34:40.371Z,1.25
2023-09-20T17:37:29.283Z,1.42
2023-09-20T17:40:21.509Z,1.00
2023-09-20T17:43:09.367Z,1.20
2023-09-20T17:45:56.963Z,1.38
2023-09-20T17:48:47.771Z,1.10
2023-09-20T17:51:35.651Z,1.10
2023-09-20T17:54:24.511Z,1.00
2023-09-20T17:57:12.772Z,1.20
2023-09-20T18:00:00.876Z,1.00
2023-09-20T18:02:48.932Z,1.20
2023-09-20T18:05:37.195Z,1.10
2023-09-20T18:08:25.352Z,1.25
2023-09-20T18:11:16.730Z,0.95
2023-09-20T18:14:07.055Z,1.00
2023-09-20T18:16:55.010Z,0.90
2023-09-20T18:19:43.241Z,1.17
2023-09-20T18:22:32.735Z,1.40
2023-09-20T18:25:22.784Z,1.20
2023-09-20T18:28:10.822Z,1.35
2023-09-20T18:30:59.692Z,1.20
2023-09-20T18:33:49.777Z,1.25
2023-09-20T18:36:37.760Z,1.27
2023-09-20T18:39:25.757Z,1.10
2023-09-20T18:42:14.666Z,1.48
2023-09-20T18:45:03.638Z,1.35
2023-09-20T18:47:51.358Z,1.63
2023-09-20T18:50:49.343Z,1.38
2023-09-20T18:53:37.496Z,1.40
2023-09-20T18:56:25.508Z,1.50
2023-09-20T18:59:13.859Z,1.48
2023-09-20T19:02:02.642Z,1.80
2023-09-20T19:04:56.316Z,1.40
2023-09-20T19:07:45.796Z,1.50
2023-09-20T19:10:33.876Z,1.40
2023-09-20T19:13:25.346Z,1.70
2023-09-20T19:16:13.810Z,1.63
2023-09-20T19:19:01.737Z,2.25
2023-09-20T19:21:49.504Z,1.60
2023-09-20T19:24:38.339Z,1.40
2023-09-20T19:27:27.821Z,1.70
2023-09-20T19:30:17.953Z,1.40
2023-09-20T19:33:06.939Z,1.92
2023-09-20T19:35:55.333Z,2.00
2023-09-20T19:38:46.157Z,2.00
2023-09-20T19:41:34.191Z,1.65
2023-09-20T19:44:22.247Z,2.05
2023-09-20T19:47:10.223Z,1.80
2023-09-20T19:49:58.326Z,1.65
2023-09-20T19:52:49.465Z,1.92
2023-09-20T19:55:41.423Z,1.98
2023-09-20T19:58:29.689Z,1.80
2023-09-20T20:01:18.647Z,2.10
2023-09-20T20:04:08.115Z,2.00
2023-09-20T20:06:56.296Z,1.73
2023-09-20T20:09:44.283Z,2.60
2023-09-20T20:12:32.656Z,1.98
2023-09-20T20:15:22.346Z,2.20
2023-09-20T20:18:10.316Z,2.10
2023-09-20T20:21:04.476Z,2.10
2023-09-20T20:23:55.465Z,2.42
2023-09-20T20:26:43.538Z,2.25
2023-09-20T20:29:31.353Z,2.58
2023-09-20T20:32:20.978Z,1.98
2023-09-20T20:35:10.370Z,1.95
2023-09-20T20:37:58.564Z,1.83
2023-09-20T20:40:47.598Z,1.90
2023-09-20T20:43:36.572Z,1.80
2023-09-20T20:46:25.612Z,1.65
2023-09-20T20:49:13.505Z,1.65
2023-09-20T20:52:01.640Z,2.28
2023-09-20T20:54:50.175Z,1.80
2023-09-20T20:57:38.541Z,2.13
2023-09-20T21:00:30.746Z,1.85
2023-09-20T21:03:20.922Z,1.80
2023-09-20T21:06:11.447Z,1.58
2023-09-20T21:09:00.224Z,1.70
2023-09-20T21:11:48.039Z,2.10
2023-09-20T21:14:35.805Z,2.08
2023-09-20T21:17:23.453Z,1.88
2023-09-20T21:20:15.646Z,2.00
2023-09-20T21:23:03.219Z,1.70
2023-09-20T21:25:52.584Z,2.05
2023-09-20T21:28:42.005Z,2.00
2023-09-20T21:31:30.044Z,1.98
2023-09-20T21:34:17.705Z,1.83
2023-09-20T21:37:05.243Z,1.90
2023-09-20T21:39:52.778Z,1.90
2023-09-20T21:42:40.274Z,1.88
2023-09-20T21:45:29.967Z,1.90
2023-09-20T21:48:17.771Z,1.80
2023-09-20T21:51:05.514Z,1.75
2023-09-20T21:53:53.172Z,1.52
2023-09-20T21:56:40.944Z,1.88
2023-09-20T21:59:28.753Z,1.60
2023-09-20T22:02:16.457Z,1.70
2023-09-20T22:05:04.282Z,1.73
2023-09-20T22:07:56.765Z,1.70
2023-09-20T22:10:45.817Z,1.80
2023-09-20T22:13:39.261Z,1.80
2023-09-20T22:16:26.874Z,1.90
2023-09-20T22:19:17.635Z,1.88
2023-09-20T22:22:05.850Z,1.88
2023-09-20T22:24:55.360Z,1.70
2023-09-20T22:27:45.950Z,2.08
2023-09-20T22:30:37.087Z,1.60
2023-09-20T22:33:24.767Z,1.60
2023-09-20T22:36:15.387Z,1.70
2023-09-20T22:39:03.598Z,1.65
2023-09-20T22:41:52.285Z,1.40
2023-09-20T22:44:39.844Z,1.55
2023-09-20T22:47:27.660Z,1.63
2023-09-20T22:50:18.238Z,1.67
2023-09-20T22:53:15.156Z,1.45
2023-09-20T22:56:11.725Z,1.90
2023-09-20T22:58:59.393Z,1.70
2023-09-20T23:01:49.704Z,1.70
2023-09-20T23:04:37.392Z,1.65
2023-09-20T23:07:25.748Z,1.63
2023-09-20T23:10:13.693Z,1.48
2023-09-20T23:13:04.743Z,1.67
2023-09-20T23:15:56.348Z,1.67
2023-09-20T23:18:46.567Z,1.90
2023-09-20T23:21:35.989Z,1.63
2023-09-20T23:24:23.737Z,1.50
2023-09-20T23:27:11.375Z,1.10
2023-09-20T23:30:00.078Z,1.42
2023-09-20T23:32:48.226Z,1.40
2023-09-20T23:35:44.001Z,1.80
2023-09-20T23:38:31.825Z,1.38
2023-09-20T23:41:19.998Z,1.50
2023-09-20T23:44:09.248Z,1.50
2023-09-20T23:46:57.283Z,1.30
2023-09-20T23:49:44.857Z,1.40
2023-09-20T23:52:34.008Z,1.48
2023-09-20T23:55:21.694Z,1.42
2023-09-20T23:58:09.255Z,1.42
